SPGM

Tingo Maria Airport

Tingo Maria, Peru
SPGM 151100Z 1512/1612 00000KT 9999 SCT030 TX33/1519Z TN20/1610Z FM151600 33008KT 9999 SCT040 SCT120 FM151900 29004KT 9999 SCT040 BKN100
Issued Valid From Valid To
Nov-15 @ 11:00 UTC
(2 hours ago)
Nov-15 @ 12:00 UTC
(44 minutes ago)
Nov-16 @ 12:00 UTC
(in 23 hours)
Nov-15 @ 12:00 to Nov-15 @ 16:00
SPGM 151100Z 1512/1612 00000KT 9999 SCT030 TX33/1519Z TN20/1610Z
Visibility Clouds
10,000+ meters
  • Scattered at 3,000' AGL
From Nov-15 @ 16:00 to Nov-15 @ 19:00
FM151600 33008KT 9999 SCT040 SCT120
Wind Visibility Clouds
330° at 8 knots 10,000+ meters
  • Scattered at 4,000' AGL
  • Scattered at 12,000' AGL
From Nov-15 @ 19:00 to Nov-16 @ 12:00
FM151900 29004KT 9999 SCT040 BKN100
Wind Visibility Clouds
290° at 4 knots 10,000+ meters
  • Scattered at 4,000' AGL
  • Broken at 10,000' AGL
SPGM 151100Z 1512/1612 00000KT 9999 SCT030 TX33/1519Z TN20/1610Z FM151600 33008KT 9999 SCT040 SCT120 FM151900 29004KT 9999 SCT040 BKN100
Issued Nov-15 @ 11:00 UTC
(2 hours ago)
Valid From Nov-15 @ 12:00 UTC
(44 minutes ago)
Valid To Nov-16 @ 12:00 UTC
(in 23 hours)
Nov-15 @ 12:00 - Nov-15 @ 16:00
Clouds
  • Scattered at 3,000' AGL
From Nov-15 @ 16:00 - Nov-15 @ 19:00
Wind Visibility
330° at 8 knots 10,000+ meters
Clouds
  • Scattered at 4,000' AGL
  • Scattered at 12,000' AGL
From Nov-15 @ 19:00 - Nov-16 @ 12:00
Wind Visibility
290° at 4 knots 10,000+ meters
Clouds
  • Scattered at 4,000' AGL
  • Broken at 10,000' AGL